sensor_id;sensor_type;location;lat;lon;timestamp;P1;durP1;ratioP1;P2;durP2;ratioP2
32032;SDS011;31720;52.638;9.216;2023-02-11T00:00:26;43.13;;;16.83;;
32032;SDS011;31720;52.638;9.216;2023-02-11T00:03:27;48.42;;;16.83;;
32032;SDS011;31720;52.638;9.216;2023-02-11T00:06:29;43.03;;;17.23;;
32032;SDS011;31720;52.638;9.216;2023-02-11T00:09:32;55.08;;;16.88;;
32032;SDS011;31720;52.638;9.216;2023-02-11T00:12:34;45.65;;;16.70;;
32032;SDS011;31720;52.638;9.216;2023-02-11T00:15:37;46.28;;;16.40;;
32032;SDS011;31720;52.638;9.216;2023-02-11T00:18:39;44.45;;;17.25;;
32032;SDS011;31720;52.638;9.216;2023-02-11T00:21:40;51.97;;;17.80;;
32032;SDS011;31720;52.638;9.216;2023-02-11T00:24:41;48.53;;;17.38;;
32032;SDS011;31720;52.638;9.216;2023-02-11T00:27:43;47.90;;;16.85;;
32032;SDS011;31720;52.638;9.216;2023-02-11T00:30:45;46.38;;;18.55;;
32032;SDS011;31720;52.638;9.216;2023-02-11T00:33:54;40.90;;;17.73;;
32032;SDS011;31720;52.638;9.216;2023-02-11T00:36:55;47.70;;;17.80;;
32032;SDS011;31720;52.638;9.216;2023-02-11T00:39:57;46.45;;;18.35;;
32032;SDS011;31720;52.638;9.216;2023-02-11T00:42:58;42.22;;;16.73;;
32032;SDS011;31720;52.638;9.216;2023-02-11T00:46:01;55.28;;;17.15;;
32032;SDS011;31720;52.638;9.216;2023-02-11T00:49:02;48.20;;;18.33;;
32032;SDS011;31720;52.638;9.216;2023-02-11T00:52:03;46.67;;;18.02;;
32032;SDS011;31720;52.638;9.216;2023-02-11T00:55:05;48.90;;;17.20;;
32032;SDS011;31720;52.638;9.216;2023-02-11T00:58:07;51.72;;;17.30;;
32032;SDS011;31720;52.638;9.216;2023-02-11T01:01:10;57.17;;;18.73;;
32032;SDS011;31720;52.638;9.216;2023-02-11T01:04:12;43.90;;;17.13;;
32032;SDS011;31720;52.638;9.216;2023-02-11T01:07:13;55.78;;;20.00;;
32032;SDS011;31720;52.638;9.216;2023-02-11T01:10:14;50.28;;;20.13;;
32032;SDS011;31720;52.638;9.216;2023-02-11T01:13:16;56.70;;;17.90;;
32032;SDS011;31720;52.638;9.216;2023-02-11T01:16:19;47.28;;;18.35;;
32032;SDS011;31720;52.638;9.216;2023-02-11T01:19:21;46.95;;;18.55;;
32032;SDS011;31720;52.638;9.216;2023-02-11T01:22:22;47.08;;;16.00;;
32032;SDS011;31720;52.638;9.216;2023-02-11T01:25:23;50.75;;;17.65;;
32032;SDS011;31720;52.638;9.216;2023-02-11T01:28:25;55.22;;;18.50;;
32032;SDS011;31720;52.638;9.216;2023-02-11T01:31:30;54.65;;;18.55;;
32032;SDS011;31720;52.638;9.216;2023-02-11T01:34:31;49.05;;;18.33;;
32032;SDS011;31720;52.638;9.216;2023-02-11T01:37:33;39.70;;;16.08;;
32032;SDS011;31720;52.638;9.216;2023-02-11T01:40:35;50.22;;;17.60;;
32032;SDS011;31720;52.638;9.216;2023-02-11T01:43:37;52.20;;;18.08;;
32032;SDS011;31720;52.638;9.216;2023-02-11T01:46:41;53.00;;;18.85;;
32032;SDS011;31720;52.638;9.216;2023-02-11T01:49:44;49.13;;;17.55;;
32032;SDS011;31720;52.638;9.216;2023-02-11T01:52:49;41.40;;;16.50;;
32032;SDS011;31720;52.638;9.216;2023-02-11T01:55:50;52.75;;;17.35;;
32032;SDS011;31720;52.638;9.216;2023-02-11T01:59:11;46.95;;;16.92;;
32032;SDS011;31720;52.638;9.216;2023-02-11T02:02:17;53.22;;;16.73;;
32032;SDS011;31720;52.638;9.216;2023-02-11T02:05:23;48.47;;;17.95;;
32032;SDS011;31720;52.638;9.216;2023-02-11T02:08:33;45.35;;;17.48;;
32032;SDS011;31720;52.638;9.216;2023-02-11T02:11:39;51.80;;;17.88;;
32032;SDS011;31720;52.638;9.216;2023-02-11T02:14:40;49.88;;;17.00;;
32032;SDS011;31720;52.638;9.216;2023-02-11T02:17:44;49.13;;;17.70;;
32032;SDS011;31720;52.638;9.216;2023-02-11T02:21:08;46.50;;;17.35;;
32032;SDS011;31720;52.638;9.216;2023-02-11T02:24:39;46.67;;;16.88;;
32032;SDS011;31720;52.638;9.216;2023-02-11T02:27:58;48.85;;;15.63;;
32032;SDS011;31720;52.638;9.216;2023-02-11T02:31:21;47.30;;;16.07;;
32032;SDS011;31720;52.638;9.216;2023-02-11T02:34:39;48.72;;;15.90;;
32032;SDS011;31720;52.638;9.216;2023-02-11T02:37:50;42.83;;;15.23;;
32032;SDS011;31720;52.638;9.216;2023-02-11T02:40:58;51.17;;;17.02;;
32032;SDS011;31720;52.638;9.216;2023-02-11T02:47:08;55.08;;;16.55;;
32032;SDS011;31720;52.638;9.216;2023-02-11T02:50:10;50.17;;;16.30;;
32032;SDS011;31720;52.638;9.216;2023-02-11T02:53:19;49.80;;;17.17;;
32032;SDS011;31720;52.638;9.216;2023-02-11T02:56:33;50.58;;;15.02;;
32032;SDS011;31720;52.638;9.216;2023-02-11T02:59:44;41.00;;;15.63;;
32032;SDS011;31720;52.638;9.216;2023-02-11T03:03:03;49.28;;;16.70;;
32032;SDS011;31720;52.638;9.216;2023-02-11T03:06:16;48.10;;;14.40;;
32032;SDS011;31720;52.638;9.216;2023-02-11T03:09:24;45.50;;;15.80;;
32032;SDS011;31720;52.638;9.216;2023-02-11T03:12:30;47.95;;;14.63;;
32032;SDS011;31720;52.638;9.216;2023-02-11T03:15:36;51.38;;;16.02;;
32032;SDS011;31720;52.638;9.216;2023-02-11T03:18:41;40.38;;;15.98;;
32032;SDS011;31720;52.638;9.216;2023-02-11T03:21:49;53.10;;;17.17;;
32032;SDS011;31720;52.638;9.216;2023-02-11T03:24:53;49.55;;;17.27;;
32032;SDS011;31720;52.638;9.216;2023-02-11T03:27:56;40.00;;;15.05;;
32032;SDS011;31720;52.638;9.216;2023-02-11T03:31:13;48.22;;;15.82;;
32032;SDS011;31720;52.638;9.216;2023-02-11T03:34:20;43.45;;;15.90;;
32032;SDS011;31720;52.638;9.216;2023-02-11T03:37:31;45.85;;;16.30;;
32032;SDS011;31720;52.638;9.216;2023-02-11T03:40:35;53.53;;;17.38;;
32032;SDS011;31720;52.638;9.216;2023-02-11T03:43:39;44.47;;;15.43;;
32032;SDS011;31720;52.638;9.216;2023-02-11T03:46:43;46.45;;;16.27;;
32032;SDS011;31720;52.638;9.216;2023-02-11T03:49:50;46.22;;;15.52;;
32032;SDS011;31720;52.638;9.216;2023-02-11T03:52:56;40.15;;;16.30;;
32032;SDS011;31720;52.638;9.216;2023-02-11T03:56:01;42.70;;;13.60;;
32032;SDS011;31720;52.638;9.216;2023-02-11T03:59:06;44.05;;;15.55;;
32032;SDS011;31720;52.638;9.216;2023-02-11T04:02:08;47.40;;;17.17;;
32032;SDS011;31720;52.638;9.216;2023-02-11T04:05:13;43.35;;;14.80;;
32032;SDS011;31720;52.638;9.216;2023-02-11T04:08:17;37.67;;;14.45;;
32032;SDS011;31720;52.638;9.216;2023-02-11T04:11:18;37.55;;;14.07;;
32032;SDS011;31720;52.638;9.216;2023-02-11T04:14:19;40.65;;;15.98;;
32032;SDS011;31720;52.638;9.216;2023-02-11T04:17:21;47.13;;;16.55;;
32032;SDS011;31720;52.638;9.216;2023-02-11T04:20:22;46.97;;;15.90;;
32032;SDS011;31720;52.638;9.216;2023-02-11T04:23:25;35.55;;;15.25;;
32032;SDS011;31720;52.638;9.216;2023-02-11T04:26:26;44.83;;;15.98;;
32032;SDS011;31720;52.638;9.216;2023-02-11T04:29:28;48.45;;;14.93;;
32032;SDS011;31720;52.638;9.216;2023-02-11T04:32:29;33.20;;;14.02;;
32032;SDS011;31720;52.638;9.216;2023-02-11T04:35:30;38.72;;;14.85;;
32032;SDS011;31720;52.638;9.216;2023-02-11T04:41:36;39.40;;;15.70;;
32032;SDS011;31720;52.638;9.216;2023-02-11T04:44:37;37.05;;;14.48;;
32032;SDS011;31720;52.638;9.216;2023-02-11T04:47:38;45.35;;;15.02;;
32032;SDS011;31720;52.638;9.216;2023-02-11T04:50:40;30.63;;;14.85;;
32032;SDS011;31720;52.638;9.216;2023-02-11T04:53:43;31.50;;;13.77;;
32032;SDS011;31720;52.638;9.216;2023-02-11T04:56:44;38.35;;;14.63;;
32032;SDS011;31720;52.638;9.216;2023-02-11T04:59:46;40.05;;;14.73;;
32032;SDS011;31720;52.638;9.216;2023-02-11T05:02:47;37.65;;;14.27;;
32032;SDS011;31720;52.638;9.216;2023-02-11T05:05:49;43.85;;;15.10;;
32032;SDS011;31720;52.638;9.216;2023-02-11T05:08:52;41.47;;;14.38;;
32032;SDS011;31720;52.638;9.216;2023-02-11T05:11:53;44.42;;;12.95;;
32032;SDS011;31720;52.638;9.216;2023-02-11T05:14:54;35.20;;;14.13;;
32032;SDS011;31720;52.638;9.216;2023-02-11T05:17:56;36.40;;;13.23;;
32032;SDS011;31720;52.638;9.216;2023-02-11T05:20:57;46.08;;;14.45;;
32032;SDS011;31720;52.638;9.216;2023-02-11T05:24:00;36.53;;;13.63;;
32032;SDS011;31720;52.638;9.216;2023-02-11T05:27:01;32.22;;;13.20;;
32032;SDS011;31720;52.638;9.216;2023-02-11T05:30:03;37.25;;;12.88;;
32032;SDS011;31720;52.638;9.216;2023-02-11T05:33:05;41.63;;;14.23;;
32032;SDS011;31720;52.638;9.216;2023-02-11T05:36:07;34.28;;;12.73;;
32032;SDS011;31720;52.638;9.216;2023-02-11T05:39:11;37.83;;;13.07;;
32032;SDS011;31720;52.638;9.216;2023-02-11T05:42:12;33.60;;;12.13;;
32032;SDS011;31720;52.638;9.216;2023-02-11T05:45:14;32.08;;;12.48;;
32032;SDS011;31720;52.638;9.216;2023-02-11T05:48:17;34.63;;;12.88;;
32032;SDS011;31720;52.638;9.216;2023-02-11T05:51:18;33.90;;;13.27;;
32032;SDS011;31720;52.638;9.216;2023-02-11T05:54:21;34.35;;;12.70;;
32032;SDS011;31720;52.638;9.216;2023-02-11T05:57:22;31.02;;;11.48;;
32032;SDS011;31720;52.638;9.216;2023-02-11T06:00:24;33.35;;;13.70;;
32032;SDS011;31720;52.638;9.216;2023-02-11T06:03:25;35.92;;;11.88;;
32032;SDS011;31720;52.638;9.216;2023-02-11T06:06:27;39.90;;;12.07;;
32032;SDS011;31720;52.638;9.216;2023-02-11T06:09:29;29.67;;;13.07;;
32032;SDS011;31720;52.638;9.216;2023-02-11T06:12:31;31.40;;;12.60;;
32032;SDS011;31720;52.638;9.216;2023-02-11T06:15:32;31.45;;;11.82;;
32032;SDS011;31720;52.638;9.216;2023-02-11T06:18:34;29.63;;;12.43;;
32032;SDS011;31720;52.638;9.216;2023-02-11T06:21:36;33.45;;;11.13;;
32032;SDS011;31720;52.638;9.216;2023-02-11T06:24:38;36.67;;;12.10;;
32032;SDS011;31720;52.638;9.216;2023-02-11T06:27:40;34.70;;;12.02;;
32032;SDS011;31720;52.638;9.216;2023-02-11T06:30:41;38.25;;;13.32;;
32032;SDS011;31720;52.638;9.216;2023-02-11T06:33:43;39.50;;;11.48;;
32032;SDS011;31720;52.638;9.216;2023-02-11T06:36:44;27.63;;;12.63;;
32032;SDS011;31720;52.638;9.216;2023-02-11T06:39:49;34.08;;;11.85;;
32032;SDS011;31720;52.638;9.216;2023-02-11T06:42:50;28.45;;;11.18;;
32032;SDS011;31720;52.638;9.216;2023-02-11T06:45:52;26.33;;;10.85;;
32032;SDS011;31720;52.638;9.216;2023-02-11T06:48:55;26.98;;;11.73;;
32032;SDS011;31720;52.638;9.216;2023-02-11T06:51:56;30.60;;;11.52;;
32032;SDS011;31720;52.638;9.216;2023-02-11T06:54:59;29.27;;;12.23;;
32032;SDS011;31720;52.638;9.216;2023-02-11T06:58:01;31.98;;;11.65;;
32032;SDS011;31720;52.638;9.216;2023-02-11T07:01:02;27.75;;;11.35;;
32032;SDS011;31720;52.638;9.216;2023-02-11T07:04:05;40.03;;;12.20;;
32032;SDS011;31720;52.638;9.216;2023-02-11T07:07:07;25.75;;;11.73;;
32032;SDS011;31720;52.638;9.216;2023-02-11T07:10:09;28.70;;;11.27;;
32032;SDS011;31720;52.638;9.216;2023-02-11T07:13:11;26.48;;;10.70;;
32032;SDS011;31720;52.638;9.216;2023-02-11T07:16:13;32.05;;;10.80;;
32032;SDS011;31720;52.638;9.216;2023-02-11T07:19:16;30.48;;;10.25;;
32032;SDS011;31720;52.638;9.216;2023-02-11T07:22:17;29.70;;;12.60;;
32032;SDS011;31720;52.638;9.216;2023-02-11T07:25:20;22.27;;;10.95;;
32032;SDS011;31720;52.638;9.216;2023-02-11T07:28:22;26.17;;;11.02;;
32032;SDS011;31720;52.638;9.216;2023-02-11T07:31:24;27.73;;;11.70;;
32032;SDS011;31720;52.638;9.216;2023-02-11T07:34:26;32.40;;;11.98;;
32032;SDS011;31720;52.638;9.216;2023-02-11T07:37:28;22.70;;;11.20;;
32032;SDS011;31720;52.638;9.216;2023-02-11T07:40:30;31.35;;;11.30;;
32032;SDS011;31720;52.638;9.216;2023-02-11T07:43:32;34.55;;;11.77;;
32032;SDS011;31720;52.638;9.216;2023-02-11T07:46:34;28.25;;;11.75;;
32032;SDS011;31720;52.638;9.216;2023-02-11T07:49:35;26.60;;;10.93;;
32032;SDS011;31720;52.638;9.216;2023-02-11T07:52:37;32.58;;;12.77;;
32032;SDS011;31720;52.638;9.216;2023-02-11T07:55:39;30.42;;;11.98;;
32032;SDS011;31720;52.638;9.216;2023-02-11T07:58:42;31.48;;;12.13;;
32032;SDS011;31720;52.638;9.216;2023-02-11T08:01:44;29.27;;;12.18;;
32032;SDS011;31720;52.638;9.216;2023-02-11T08:04:46;26.20;;;11.20;;
32032;SDS011;31720;52.638;9.216;2023-02-11T08:07:49;36.22;;;14.00;;
32032;SDS011;31720;52.638;9.216;2023-02-11T08:10:52;28.35;;;11.10;;
32032;SDS011;31720;52.638;9.216;2023-02-11T08:13:54;24.08;;;9.93;;
32032;SDS011;31720;52.638;9.216;2023-02-11T08:16:56;30.98;;;12.38;;
32032;SDS011;31720;52.638;9.216;2023-02-11T08:19:57;37.80;;;13.60;;
32032;SDS011;31720;52.638;9.216;2023-02-11T08:22:59;29.88;;;11.82;;
32032;SDS011;31720;52.638;9.216;2023-02-11T08:26:02;35.92;;;13.73;;
32032;SDS011;31720;52.638;9.216;2023-02-11T08:29:05;28.15;;;11.45;;
32032;SDS011;31720;52.638;9.216;2023-02-11T08:32:09;35.60;;;14.18;;
32032;SDS011;31720;52.638;9.216;2023-02-11T08:35:10;38.58;;;12.55;;
32032;SDS011;31720;52.638;9.216;2023-02-11T08:38:12;30.35;;;12.25;;
32032;SDS011;31720;52.638;9.216;2023-02-11T08:41:15;39.85;;;12.88;;
32032;SDS011;31720;52.638;9.216;2023-02-11T08:44:17;30.13;;;11.60;;
32032;SDS011;31720;52.638;9.216;2023-02-11T08:47:19;36.55;;;13.90;;
32032;SDS011;31720;52.638;9.216;2023-02-11T08:50:21;40.90;;;13.80;;
32032;SDS011;31720;52.638;9.216;2023-02-11T08:53:22;41.97;;;14.48;;
32032;SDS011;31720;52.638;9.216;2023-02-11T08:56:25;32.92;;;11.73;;
32032;SDS011;31720;52.638;9.216;2023-02-11T08:59:27;29.65;;;11.30;;
32032;SDS011;31720;52.638;9.216;2023-02-11T09:02:29;32.00;;;11.38;;
32032;SDS011;31720;52.638;9.216;2023-02-11T09:05:30;37.85;;;13.52;;
32032;SDS011;31720;52.638;9.216;2023-02-11T09:08:32;38.58;;;12.00;;
32032;SDS011;31720;52.638;9.216;2023-02-11T09:11:36;34.67;;;13.13;;
32032;SDS011;31720;52.638;9.216;2023-02-11T09:14:38;38.75;;;12.32;;
32032;SDS011;31720;52.638;9.216;2023-02-11T09:17:40;36.05;;;12.65;;
32032;SDS011;31720;52.638;9.216;2023-02-11T09:20:42;29.27;;;12.40;;
32032;SDS011;31720;52.638;9.216;2023-02-11T09:23:43;29.98;;;11.95;;
32032;SDS011;31720;52.638;9.216;2023-02-11T09:26:48;27.83;;;13.48;;
32032;SDS011;31720;52.638;9.216;2023-02-11T09:29:49;36.30;;;12.50;;
32032;SDS011;31720;52.638;9.216;2023-02-11T09:32:50;36.22;;;13.43;;
32032;SDS011;31720;52.638;9.216;2023-02-11T09:35:52;35.13;;;12.45;;
32032;SDS011;31720;52.638;9.216;2023-02-11T09:38:53;32.67;;;13.25;;
32032;SDS011;31720;52.638;9.216;2023-02-11T09:42:09;36.42;;;12.93;;
32032;SDS011;31720;52.638;9.216;2023-02-11T09:45:25;31.35;;;12.18;;
32032;SDS011;31720;52.638;9.216;2023-02-11T09:48:37;28.48;;;11.73;;
32032;SDS011;31720;52.638;9.216;2023-02-11T09:51:42;37.85;;;12.57;;
32032;SDS011;31720;52.638;9.216;2023-02-11T09:54:49;29.63;;;13.02;;
32032;SDS011;31720;52.638;9.216;2023-02-11T09:57:56;36.38;;;13.63;;
32032;SDS011;31720;52.638;9.216;2023-02-11T10:01:00;34.35;;;11.30;;
32032;SDS011;31720;52.638;9.216;2023-02-11T10:04:11;34.55;;;11.27;;
32032;SDS011;31720;52.638;9.216;2023-02-11T10:07:21;34.03;;;12.90;;
32032;SDS011;31720;52.638;9.216;2023-02-11T10:10:39;30.60;;;13.00;;
32032;SDS011;31720;52.638;9.216;2023-02-11T10:13:49;36.58;;;12.07;;
32032;SDS011;31720;52.638;9.216;2023-02-11T10:16:59;28.50;;;12.35;;
32032;SDS011;31720;52.638;9.216;2023-02-11T10:20:17;35.22;;;11.40;;
32032;SDS011;31720;52.638;9.216;2023-02-11T10:23:28;32.42;;;12.95;;
32032;SDS011;31720;52.638;9.216;2023-02-11T10:26:34;33.42;;;11.93;;
32032;SDS011;31720;52.638;9.216;2023-02-11T10:29:39;26.67;;;11.85;;
32032;SDS011;31720;52.638;9.216;2023-02-11T10:32:45;29.52;;;12.20;;
32032;SDS011;31720;52.638;9.216;2023-02-11T10:35:50;36.10;;;12.63;;
32032;SDS011;31720;52.638;9.216;2023-02-11T10:38:51;35.22;;;12.90;;
32032;SDS011;31720;52.638;9.216;2023-02-11T10:41:53;30.42;;;11.60;;
32032;SDS011;31720;52.638;9.216;2023-02-11T10:45:01;33.28;;;12.27;;
32032;SDS011;31720;52.638;9.216;2023-02-11T10:48:06;25.50;;;11.55;;
32032;SDS011;31720;52.638;9.216;2023-02-11T10:51:37;37.17;;;12.48;;
32032;SDS011;31720;52.638;9.216;2023-02-11T10:54:38;29.15;;;12.18;;
32032;SDS011;31720;52.638;9.216;2023-02-11T10:57:40;26.83;;;12.98;;
32032;SDS011;31720;52.638;9.216;2023-02-11T11:00:51;38.17;;;12.70;;
32032;SDS011;31720;52.638;9.216;2023-02-11T11:03:54;29.83;;;12.95;;
32032;SDS011;31720;52.638;9.216;2023-02-11T11:07:08;33.22;;;12.10;;
32032;SDS011;31720;52.638;9.216;2023-02-11T11:10:24;38.70;;;12.48;;
32032;SDS011;31720;52.638;9.216;2023-02-11T11:13:29;41.40;;;12.32;;
32032;SDS011;31720;52.638;9.216;2023-02-11T11:16:33;36.90;;;12.18;;
32032;SDS011;31720;52.638;9.216;2023-02-11T11:19:35;32.58;;;13.50;;
32032;SDS011;31720;52.638;9.216;2023-02-11T11:22:38;28.67;;;12.48;;
32032;SDS011;31720;52.638;9.216;2023-02-11T11:25:42;28.08;;;11.82;;
32032;SDS011;31720;52.638;9.216;2023-02-11T11:28:52;36.85;;;12.85;;
32032;SDS011;31720;52.638;9.216;2023-02-11T11:31:59;37.80;;;13.07;;
32032;SDS011;31720;52.638;9.216;2023-02-11T11:35:06;31.02;;;12.27;;
32032;SDS011;31720;52.638;9.216;2023-02-11T11:38:20;28.67;;;11.00;;
32032;SDS011;31720;52.638;9.216;2023-02-11T11:41:23;33.90;;;11.98;;
32032;SDS011;31720;52.638;9.216;2023-02-11T11:44:27;30.23;;;11.70;;
32032;SDS011;31720;52.638;9.216;2023-02-11T11:47:33;28.30;;;12.50;;
32032;SDS011;31720;52.638;9.216;2023-02-11T11:50:40;26.67;;;11.93;;
32032;SDS011;31720;52.638;9.216;2023-02-11T11:53:45;26.63;;;12.23;;
32032;SDS011;31720;52.638;9.216;2023-02-11T11:56:53;29.60;;;11.77;;
32032;SDS011;31720;52.638;9.216;2023-02-11T11:59:59;31.98;;;12.80;;
32032;SDS011;31720;52.638;9.216;2023-02-11T12:03:11;30.33;;;13.10;;
32032;SDS011;31720;52.638;9.216;2023-02-11T12:06:24;28.58;;;12.02;;
32032;SDS011;31720;52.638;9.216;2023-02-11T12:09:35;31.80;;;11.77;;
32032;SDS011;31720;52.638;9.216;2023-02-11T12:12:45;30.10;;;12.98;;
32032;SDS011;31720;52.638;9.216;2023-02-11T12:15:56;34.67;;;12.65;;
32032;SDS011;31720;52.638;9.216;2023-02-11T12:22:40;34.90;;;13.32;;
32032;SDS011;31720;52.638;9.216;2023-02-11T12:25:55;35.65;;;13.40;;
32032;SDS011;31720;52.638;9.216;2023-02-11T12:29:05;41.10;;;14.90;;
32032;SDS011;31720;52.638;9.216;2023-02-11T12:32:16;33.63;;;13.85;;
32032;SDS011;31720;52.638;9.216;2023-02-11T12:35:28;32.33;;;13.43;;
32032;SDS011;31720;52.638;9.216;2023-02-11T12:38:52;34.15;;;14.65;;
32032;SDS011;31720;52.638;9.216;2023-02-11T12:42:16;34.08;;;14.18;;
32032;SDS011;31720;52.638;9.216;2023-02-11T12:45:58;37.80;;;14.18;;
32032;SDS011;31720;52.638;9.216;2023-02-11T12:49:10;37.05;;;13.63;;
32032;SDS011;31720;52.638;9.216;2023-02-11T12:52:28;32.55;;;12.07;;
32032;SDS011;31720;52.638;9.216;2023-02-11T12:55:42;36.42;;;13.30;;
32032;SDS011;31720;52.638;9.216;2023-02-11T12:58:47;26.90;;;12.68;;
32032;SDS011;31720;52.638;9.216;2023-02-11T13:01:52;28.67;;;12.32;;
32032;SDS011;31720;52.638;9.216;2023-02-11T13:04:59;30.48;;;13.32;;
32032;SDS011;31720;52.638;9.216;2023-02-11T13:08:08;30.20;;;13.27;;
32032;SDS011;31720;52.638;9.216;2023-02-11T13:11:16;36.70;;;12.70;;
32032;SDS011;31720;52.638;9.216;2023-02-11T13:14:21;30.35;;;13.10;;
32032;SDS011;31720;52.638;9.216;2023-02-11T13:17:27;34.15;;;11.65;;
32032;SDS011;31720;52.638;9.216;2023-02-11T13:20:37;32.80;;;12.63;;
32032;SDS011;31720;52.638;9.216;2023-02-11T13:23:45;27.80;;;11.80;;
32032;SDS011;31720;52.638;9.216;2023-02-11T13:26:57;25.60;;;10.90;;
32032;SDS011;31720;52.638;9.216;2023-02-11T13:30:17;28.27;;;11.68;;
32032;SDS011;31720;52.638;9.216;2023-02-11T13:33:29;22.13;;;11.27;;
32032;SDS011;31720;52.638;9.216;2023-02-11T13:36:33;24.35;;;10.93;;
32032;SDS011;31720;52.638;9.216;2023-02-11T13:39:35;33.25;;;12.07;;
32032;SDS011;31720;52.638;9.216;2023-02-11T13:42:44;24.17;;;11.20;;
32032;SDS011;31720;52.638;9.216;2023-02-11T13:45:50;29.65;;;12.75;;
32032;SDS011;31720;52.638;9.216;2023-02-11T13:48:57;25.83;;;11.23;;
32032;SDS011;31720;52.638;9.216;2023-02-11T13:51:58;28.85;;;11.40;;
32032;SDS011;31720;52.638;9.216;2023-02-11T13:55:06;26.25;;;11.60;;
32032;SDS011;31720;52.638;9.216;2023-02-11T13:58:33;21.70;;;9.65;;
32032;SDS011;31720;52.638;9.216;2023-02-11T14:01:39;22.88;;;10.52;;
32032;SDS011;31720;52.638;9.216;2023-02-11T14:05:19;25.55;;;10.07;;
32032;SDS011;31720;52.638;9.216;2023-02-11T14:08:57;24.85;;;10.45;;
32032;SDS011;31720;52.638;9.216;2023-02-11T14:12:20;25.45;;;9.45;;
32032;SDS011;31720;52.638;9.216;2023-02-11T14:15:26;19.17;;;9.35;;
32032;SDS011;31720;52.638;9.216;2023-02-11T14:18:56;29.10;;;10.32;;
32032;SDS011;31720;52.638;9.216;2023-02-11T14:22:00;20.75;;;9.68;;
32032;SDS011;31720;52.638;9.216;2023-02-11T14:25:03;28.33;;;10.05;;
32032;SDS011;31720;52.638;9.216;2023-02-11T14:28:17;27.05;;;10.20;;
32032;SDS011;31720;52.638;9.216;2023-02-11T14:34:34;25.70;;;9.82;;
32032;SDS011;31720;52.638;9.216;2023-02-11T14:37:44;29.42;;;9.38;;
32032;SDS011;31720;52.638;9.216;2023-02-11T14:40:56;27.50;;;9.95;;
32032;SDS011;31720;52.638;9.216;2023-02-11T14:44:10;19.52;;;8.30;;
32032;SDS011;31720;52.638;9.216;2023-02-11T14:47:16;26.23;;;9.07;;
32032;SDS011;31720;52.638;9.216;2023-02-11T14:50:23;16.70;;;8.02;;
32032;SDS011;31720;52.638;9.216;2023-02-11T14:53:27;21.65;;;9.05;;
32032;SDS011;31720;52.638;9.216;2023-02-11T14:56:31;27.38;;;8.18;;
32032;SDS011;31720;52.638;9.216;2023-02-11T14:59:34;21.88;;;8.50;;
32032;SDS011;31720;52.638;9.216;2023-02-11T15:02:36;21.08;;;8.85;;
32032;SDS011;31720;52.638;9.216;2023-02-11T15:05:38;24.60;;;9.57;;
32032;SDS011;31720;52.638;9.216;2023-02-11T15:08:41;25.48;;;9.23;;
32032;SDS011;31720;52.638;9.216;2023-02-11T15:11:45;26.20;;;8.50;;
32032;SDS011;31720;52.638;9.216;2023-02-11T15:14:51;15.68;;;7.65;;
32032;SDS011;31720;52.638;9.216;2023-02-11T15:17:54;21.88;;;8.88;;
32032;SDS011;31720;52.638;9.216;2023-02-11T15:20:59;18.85;;;7.90;;
32032;SDS011;31720;52.638;9.216;2023-02-11T15:24:02;21.85;;;8.32;;
32032;SDS011;31720;52.638;9.216;2023-02-11T15:27:10;16.98;;;8.23;;
32032;SDS011;31720;52.638;9.216;2023-02-11T15:30:23;20.50;;;9.82;;
32032;SDS011;31720;52.638;9.216;2023-02-11T15:33:27;13.43;;;7.32;;
32032;SDS011;31720;52.638;9.216;2023-02-11T15:36:31;22.33;;;8.35;;
32032;SDS011;31720;52.638;9.216;2023-02-11T15:39:35;17.48;;;7.20;;
32032;SDS011;31720;52.638;9.216;2023-02-11T15:42:39;17.88;;;6.93;;
32032;SDS011;31720;52.638;9.216;2023-02-11T15:45:57;16.67;;;6.93;;
32032;SDS011;31720;52.638;9.216;2023-02-11T15:49:01;18.83;;;7.45;;
32032;SDS011;31720;52.638;9.216;2023-02-11T15:52:02;18.63;;;9.25;;
32032;SDS011;31720;52.638;9.216;2023-02-11T15:55:04;17.30;;;7.03;;
32032;SDS011;31720;52.638;9.216;2023-02-11T15:58:07;19.95;;;6.75;;
32032;SDS011;31720;52.638;9.216;2023-02-11T16:01:11;18.02;;;6.95;;
32032;SDS011;31720;52.638;9.216;2023-02-11T16:04:14;17.73;;;7.32;;
32032;SDS011;31720;52.638;9.216;2023-02-11T16:07:36;16.98;;;6.93;;
32032;SDS011;31720;52.638;9.216;2023-02-11T16:10:52;20.77;;;7.13;;
32032;SDS011;31720;52.638;9.216;2023-02-11T16:13:57;21.77;;;7.13;;
32032;SDS011;31720;52.638;9.216;2023-02-11T16:17:02;13.02;;;6.35;;
32032;SDS011;31720;52.638;9.216;2023-02-11T16:20:15;20.63;;;6.32;;
32032;SDS011;31720;52.638;9.216;2023-02-11T16:23:19;17.33;;;6.45;;
32032;SDS011;31720;52.638;9.216;2023-02-11T16:26:24;14.68;;;5.70;;
32032;SDS011;31720;52.638;9.216;2023-02-11T16:29:29;20.20;;;7.35;;
32032;SDS011;31720;52.638;9.216;2023-02-11T16:32:33;15.02;;;6.00;;
32032;SDS011;31720;52.638;9.216;2023-02-11T16:35:34;21.00;;;5.53;;
32032;SDS011;31720;52.638;9.216;2023-02-11T16:38:36;16.15;;;5.88;;
32032;SDS011;31720;52.638;9.216;2023-02-11T16:41:37;14.35;;;5.82;;
32032;SDS011;31720;52.638;9.216;2023-02-11T16:44:39;12.98;;;5.63;;
32032;SDS011;31720;52.638;9.216;2023-02-11T16:47:41;15.25;;;5.53;;
32032;SDS011;31720;52.638;9.216;2023-02-11T16:50:43;11.00;;;6.05;;
32032;SDS011;31720;52.638;9.216;2023-02-11T16:53:46;9.57;;;4.90;;
32032;SDS011;31720;52.638;9.216;2023-02-11T16:56:48;17.10;;;5.18;;
32032;SDS011;31720;52.638;9.216;2023-02-11T16:59:50;11.32;;;6.35;;
32032;SDS011;31720;52.638;9.216;2023-02-11T17:02:53;14.05;;;4.80;;
32032;SDS011;31720;52.638;9.216;2023-02-11T17:05:54;21.48;;;6.40;;
32032;SDS011;31720;52.638;9.216;2023-02-11T17:08:56;12.43;;;5.03;;
32032;SDS011;31720;52.638;9.216;2023-02-11T17:11:57;21.63;;;6.22;;
32032;SDS011;31720;52.638;9.216;2023-02-11T17:14:59;17.42;;;5.25;;
32032;SDS011;31720;52.638;9.216;2023-02-11T17:18:02;13.68;;;5.25;;
32032;SDS011;31720;52.638;9.216;2023-02-11T17:21:04;19.17;;;5.65;;
32032;SDS011;31720;52.638;9.216;2023-02-11T17:24:06;10.10;;;5.60;;
32032;SDS011;31720;52.638;9.216;2023-02-11T17:27:08;11.60;;;5.55;;
32032;SDS011;31720;52.638;9.216;2023-02-11T17:30:12;9.93;;;4.55;;
32032;SDS011;31720;52.638;9.216;2023-02-11T17:33:15;10.55;;;5.28;;
32032;SDS011;31720;52.638;9.216;2023-02-11T17:36:17;11.73;;;5.93;;
32032;SDS011;31720;52.638;9.216;2023-02-11T17:39:19;20.67;;;6.03;;
32032;SDS011;31720;52.638;9.216;2023-02-11T17:42:20;13.68;;;4.93;;
32032;SDS011;31720;52.638;9.216;2023-02-11T17:45:22;11.40;;;4.65;;
32032;SDS011;31720;52.638;9.216;2023-02-11T17:48:25;14.88;;;5.70;;
32032;SDS011;31720;52.638;9.216;2023-02-11T17:51:27;11.95;;;5.80;;
32032;SDS011;31720;52.638;9.216;2023-02-11T17:54:30;16.55;;;4.78;;
32032;SDS011;31720;52.638;9.216;2023-02-11T17:57:31;10.73;;;4.50;;
32032;SDS011;31720;52.638;9.216;2023-02-11T18:00:33;21.25;;;6.35;;
32032;SDS011;31720;52.638;9.216;2023-02-11T18:03:36;9.70;;;4.57;;
32032;SDS011;31720;52.638;9.216;2023-02-11T18:06:37;12.15;;;4.93;;
32032;SDS011;31720;52.638;9.216;2023-02-11T18:09:39;10.77;;;4.88;;
32032;SDS011;31720;52.638;9.216;2023-02-11T18:12:41;11.40;;;4.65;;
32032;SDS011;31720;52.638;9.216;2023-02-11T18:15:42;11.10;;;4.68;;
32032;SDS011;31720;52.638;9.216;2023-02-11T18:18:45;12.30;;;4.70;;